sensor_id;sensor_type;location;lat;lon;timestamp;P1;durP1;ratioP1;P2;durP2;ratioP2
32535;SDS011;18974;50.838;4.636;2022-07-05T00:00:43;5.25;;;2.95;;
32535;SDS011;18974;50.838;4.636;2022-07-05T00:03:09;4.20;;;3.20;;
32535;SDS011;18974;50.838;4.636;2022-07-05T00:05:35;5.07;;;3.08;;
32535;SDS011;18974;50.838;4.636;2022-07-05T00:08:02;3.63;;;3.17;;
32535;SDS011;18974;50.838;4.636;2022-07-05T00:10:28;4.90;;;3.45;;
32535;SDS011;18974;50.838;4.636;2022-07-05T00:12:55;3.92;;;3.13;;
32535;SDS011;18974;50.838;4.636;2022-07-05T00:15:20;5.85;;;3.10;;
32535;SDS011;18974;50.838;4.636;2022-07-05T00:17:47;6.28;;;3.03;;
32535;SDS011;18974;50.838;4.636;2022-07-05T00:20:13;6.93;;;2.80;;
32535;SDS011;18974;50.838;4.636;2022-07-05T00:22:39;6.30;;;3.20;;
32535;SDS011;18974;50.838;4.636;2022-07-05T00:25:04;6.32;;;3.42;;
32535;SDS011;18974;50.838;4.636;2022-07-05T00:27:30;7.55;;;3.17;;
32535;SDS011;18974;50.838;4.636;2022-07-05T00:29:56;5.75;;;3.47;;
32535;SDS011;18974;50.838;4.636;2022-07-05T00:32:22;4.63;;;3.00;;
32535;SDS011;18974;50.838;4.636;2022-07-05T00:34:48;7.60;;;3.38;;
32535;SDS011;18974;50.838;4.636;2022-07-05T00:37:13;7.68;;;3.53;;
32535;SDS011;18974;50.838;4.636;2022-07-05T00:39:39;5.78;;;3.42;;
32535;SDS011;18974;50.838;4.636;2022-07-05T00:42:05;6.43;;;3.58;;
32535;SDS011;18974;50.838;4.636;2022-07-05T00:44:32;4.38;;;3.70;;
32535;SDS011;18974;50.838;4.636;2022-07-05T00:47:03;5.18;;;3.63;;
32535;SDS011;18974;50.838;4.636;2022-07-05T00:49:30;5.82;;;3.80;;
32535;SDS011;18974;50.838;4.636;2022-07-05T00:51:56;6.50;;;3.85;;
32535;SDS011;18974;50.838;4.636;2022-07-05T00:54:23;5.60;;;3.72;;
32535;SDS011;18974;50.838;4.636;2022-07-05T00:56:49;4.63;;;3.47;;
32535;SDS011;18974;50.838;4.636;2022-07-05T00:59:15;6.20;;;3.50;;
32535;SDS011;18974;50.838;4.636;2022-07-05T01:01:40;4.75;;;4.25;;
32535;SDS011;18974;50.838;4.636;2022-07-05T01:04:06;5.15;;;3.95;;
32535;SDS011;18974;50.838;4.636;2022-07-05T01:06:32;6.55;;;4.10;;
32535;SDS011;18974;50.838;4.636;2022-07-05T01:08:58;4.25;;;3.85;;
32535;SDS011;18974;50.838;4.636;2022-07-05T01:11:24;5.43;;;3.58;;
32535;SDS011;18974;50.838;4.636;2022-07-05T01:13:50;7.38;;;3.30;;
32535;SDS011;18974;50.838;4.636;2022-07-05T01:16:16;5.47;;;3.50;;
32535;SDS011;18974;50.838;4.636;2022-07-05T01:18:43;5.78;;;3.50;;
32535;SDS011;18974;50.838;4.636;2022-07-05T01:21:09;5.57;;;3.70;;
32535;SDS011;18974;50.838;4.636;2022-07-05T01:23:40;5.90;;;3.53;;
32535;SDS011;18974;50.838;4.636;2022-07-05T01:26:07;6.25;;;3.40;;
32535;SDS011;18974;50.838;4.636;2022-07-05T01:28:32;4.97;;;3.67;;
32535;SDS011;18974;50.838;4.636;2022-07-05T01:31:00;4.82;;;3.72;;
32535;SDS011;18974;50.838;4.636;2022-07-05T01:33:27;10.35;;;3.95;;
32535;SDS011;18974;50.838;4.636;2022-07-05T01:35:54;9.88;;;4.50;;
32535;SDS011;18974;50.838;4.636;2022-07-05T01:38:20;5.75;;;4.35;;
32535;SDS011;18974;50.838;4.636;2022-07-05T01:40:45;7.70;;;4.45;;
32535;SDS011;18974;50.838;4.636;2022-07-05T01:43:15;6.80;;;4.70;;
32535;SDS011;18974;50.838;4.636;2022-07-05T01:45:40;13.88;;;5.10;;
32535;SDS011;18974;50.838;4.636;2022-07-05T01:48:09;11.20;;;4.32;;
32535;SDS011;18974;50.838;4.636;2022-07-05T01:50:38;6.55;;;4.28;;
32535;SDS011;18974;50.838;4.636;2022-07-05T01:53:14;6.43;;;4.72;;
32535;SDS011;18974;50.838;4.636;2022-07-05T01:55:44;7.53;;;4.45;;
32535;SDS011;18974;50.838;4.636;2022-07-05T01:58:10;5.80;;;4.13;;
32535;SDS011;18974;50.838;4.636;2022-07-05T02:00:43;5.72;;;4.72;;
32535;SDS011;18974;50.838;4.636;2022-07-05T02:03:18;6.20;;;4.35;;
32535;SDS011;18974;50.838;4.636;2022-07-05T02:05:45;7.22;;;4.30;;
32535;SDS011;18974;50.838;4.636;2022-07-05T02:08:11;5.22;;;4.43;;
32535;SDS011;18974;50.838;4.636;2022-07-05T02:10:38;7.63;;;4.57;;
32535;SDS011;18974;50.838;4.636;2022-07-05T02:13:04;11.25;;;4.80;;
32535;SDS011;18974;50.838;4.636;2022-07-05T02:15:31;7.93;;;4.30;;
32535;SDS011;18974;50.838;4.636;2022-07-05T02:17:58;4.78;;;4.18;;
32535;SDS011;18974;50.838;4.636;2022-07-05T02:20:24;8.15;;;4.50;;
32535;SDS011;18974;50.838;4.636;2022-07-05T02:22:50;5.82;;;4.22;;
32535;SDS011;18974;50.838;4.636;2022-07-05T02:25:16;5.25;;;4.15;;
32535;SDS011;18974;50.838;4.636;2022-07-05T02:27:42;5.93;;;4.50;;
32535;SDS011;18974;50.838;4.636;2022-07-05T02:30:07;6.78;;;4.43;;
32535;SDS011;18974;50.838;4.636;2022-07-05T02:32:33;7.25;;;4.03;;
32535;SDS011;18974;50.838;4.636;2022-07-05T02:34:59;10.75;;;4.97;;
32535;SDS011;18974;50.838;4.636;2022-07-05T02:37:25;4.43;;;3.55;;
32535;SDS011;18974;50.838;4.636;2022-07-05T02:39:52;6.38;;;4.13;;
32535;SDS011;18974;50.838;4.636;2022-07-05T02:42:17;5.18;;;4.20;;
32535;SDS011;18974;50.838;4.636;2022-07-05T02:44:43;8.68;;;4.55;;
32535;SDS011;18974;50.838;4.636;2022-07-05T02:47:09;5.45;;;4.10;;
32535;SDS011;18974;50.838;4.636;2022-07-05T02:49:34;5.85;;;4.18;;
32535;SDS011;18974;50.838;4.636;2022-07-05T02:52:00;7.97;;;4.10;;
32535;SDS011;18974;50.838;4.636;2022-07-05T02:54:25;5.15;;;4.35;;
32535;SDS011;18974;50.838;4.636;2022-07-05T02:56:51;6.38;;;4.40;;
32535;SDS011;18974;50.838;4.636;2022-07-05T02:59:17;8.45;;;5.18;;
32535;SDS011;18974;50.838;4.636;2022-07-05T03:01:42;8.35;;;4.68;;
32535;SDS011;18974;50.838;4.636;2022-07-05T03:04:08;7.22;;;4.63;;
32535;SDS011;18974;50.838;4.636;2022-07-05T03:06:35;5.57;;;4.13;;
32535;SDS011;18974;50.838;4.636;2022-07-05T03:09:01;5.82;;;4.03;;
32535;SDS011;18974;50.838;4.636;2022-07-05T03:11:27;5.28;;;4.30;;
32535;SDS011;18974;50.838;4.636;2022-07-05T03:13:53;5.90;;;4.35;;
32535;SDS011;18974;50.838;4.636;2022-07-05T03:16:18;7.80;;;4.95;;
32535;SDS011;18974;50.838;4.636;2022-07-05T03:18:44;5.03;;;4.00;;
32535;SDS011;18974;50.838;4.636;2022-07-05T03:21:10;8.00;;;4.45;;
32535;SDS011;18974;50.838;4.636;2022-07-05T03:23:35;7.13;;;5.30;;
32535;SDS011;18974;50.838;4.636;2022-07-05T03:26:01;8.18;;;5.65;;
32535;SDS011;18974;50.838;4.636;2022-07-05T03:28:27;8.90;;;5.30;;
32535;SDS011;18974;50.838;4.636;2022-07-05T03:30:52;8.93;;;5.93;;
32535;SDS011;18974;50.838;4.636;2022-07-05T03:33:18;9.07;;;5.72;;
32535;SDS011;18974;50.838;4.636;2022-07-05T03:35:43;10.23;;;5.63;;
32535;SDS011;18974;50.838;4.636;2022-07-05T03:38:09;7.50;;;5.97;;
32535;SDS011;18974;50.838;4.636;2022-07-05T03:40:35;8.80;;;5.60;;
32535;SDS011;18974;50.838;4.636;2022-07-05T03:43:00;9.00;;;5.85;;
32535;SDS011;18974;50.838;4.636;2022-07-05T03:45:26;10.27;;;5.20;;
32535;SDS011;18974;50.838;4.636;2022-07-05T03:47:52;8.55;;;5.18;;
32535;SDS011;18974;50.838;4.636;2022-07-05T03:50:17;10.43;;;5.28;;
32535;SDS011;18974;50.838;4.636;2022-07-05T03:52:43;7.03;;;4.97;;
32535;SDS011;18974;50.838;4.636;2022-07-05T03:55:09;7.90;;;4.85;;
32535;SDS011;18974;50.838;4.636;2022-07-05T03:57:34;6.70;;;4.72;;
32535;SDS011;18974;50.838;4.636;2022-07-05T04:00:00;9.10;;;5.35;;
32535;SDS011;18974;50.838;4.636;2022-07-05T04:02:26;6.88;;;4.53;;
32535;SDS011;18974;50.838;4.636;2022-07-05T04:04:51;7.75;;;4.88;;
32535;SDS011;18974;50.838;4.636;2022-07-05T04:07:17;8.50;;;5.40;;
32535;SDS011;18974;50.838;4.636;2022-07-05T04:09:43;11.13;;;5.25;;
32535;SDS011;18974;50.838;4.636;2022-07-05T04:12:08;8.30;;;5.57;;
32535;SDS011;18974;50.838;4.636;2022-07-05T04:14:34;12.25;;;5.60;;
32535;SDS011;18974;50.838;4.636;2022-07-05T04:17:00;10.70;;;5.68;;
32535;SDS011;18974;50.838;4.636;2022-07-05T04:19:25;9.38;;;5.57;;
32535;SDS011;18974;50.838;4.636;2022-07-05T04:21:51;8.90;;;5.35;;
32535;SDS011;18974;50.838;4.636;2022-07-05T04:24:17;10.35;;;5.90;;
32535;SDS011;18974;50.838;4.636;2022-07-05T04:26:42;9.90;;;5.45;;
32535;SDS011;18974;50.838;4.636;2022-07-05T04:29:08;11.77;;;5.95;;
32535;SDS011;18974;50.838;4.636;2022-07-05T04:31:34;13.57;;;5.93;;
32535;SDS011;18974;50.838;4.636;2022-07-05T04:34:00;8.38;;;5.55;;
32535;SDS011;18974;50.838;4.636;2022-07-05T04:36:25;7.95;;;5.32;;
32535;SDS011;18974;50.838;4.636;2022-07-05T04:38:51;8.90;;;5.78;;
32535;SDS011;18974;50.838;4.636;2022-07-05T04:41:17;7.65;;;5.45;;
32535;SDS011;18974;50.838;4.636;2022-07-05T04:43:43;12.13;;;5.53;;
32535;SDS011;18974;50.838;4.636;2022-07-05T04:46:08;5.55;;;4.53;;
32535;SDS011;18974;50.838;4.636;2022-07-05T04:48:34;11.23;;;4.85;;
32535;SDS011;18974;50.838;4.636;2022-07-05T04:51:00;7.07;;;4.68;;
32535;SDS011;18974;50.838;4.636;2022-07-05T04:53:25;9.27;;;4.35;;
32535;SDS011;18974;50.838;4.636;2022-07-05T04:55:51;6.85;;;4.78;;
32535;SDS011;18974;50.838;4.636;2022-07-05T04:58:16;7.25;;;4.15;;
32535;SDS011;18974;50.838;4.636;2022-07-05T05:00:42;5.38;;;4.05;;
32535;SDS011;18974;50.838;4.636;2022-07-05T05:03:08;6.53;;;4.05;;
32535;SDS011;18974;50.838;4.636;2022-07-05T05:05:33;4.30;;;3.63;;
32535;SDS011;18974;50.838;4.636;2022-07-05T05:07:59;5.90;;;3.67;;
32535;SDS011;18974;50.838;4.636;2022-07-05T05:10:25;4.80;;;4.00;;
32535;SDS011;18974;50.838;4.636;2022-07-05T05:12:51;11.10;;;4.30;;
32535;SDS011;18974;50.838;4.636;2022-07-05T05:15:16;7.65;;;4.03;;
32535;SDS011;18974;50.838;4.636;2022-07-05T05:17:42;5.70;;;4.20;;
32535;SDS011;18974;50.838;4.636;2022-07-05T05:20:12;5.07;;;4.20;;
32535;SDS011;18974;50.838;4.636;2022-07-05T05:22:40;10.25;;;3.72;;
32535;SDS011;18974;50.838;4.636;2022-07-05T05:25:06;6.18;;;4.82;;
32535;SDS011;18974;50.838;4.636;2022-07-05T05:27:33;5.30;;;3.45;;
32535;SDS011;18974;50.838;4.636;2022-07-05T05:29:59;5.35;;;3.97;;
32535;SDS011;18974;50.838;4.636;2022-07-05T05:32:24;5.90;;;4.00;;
32535;SDS011;18974;50.838;4.636;2022-07-05T05:34:50;6.47;;;4.20;;
32535;SDS011;18974;50.838;4.636;2022-07-05T05:37:16;4.18;;;3.60;;
32535;SDS011;18974;50.838;4.636;2022-07-05T05:39:41;5.53;;;3.60;;
32535;SDS011;18974;50.838;4.636;2022-07-05T05:42:07;4.13;;;3.42;;
32535;SDS011;18974;50.838;4.636;2022-07-05T05:44:33;6.45;;;3.65;;
32535;SDS011;18974;50.838;4.636;2022-07-05T05:46:59;6.43;;;3.70;;
32535;SDS011;18974;50.838;4.636;2022-07-05T05:49:24;4.30;;;3.38;;
32535;SDS011;18974;50.838;4.636;2022-07-05T05:51:50;4.47;;;2.95;;
32535;SDS011;18974;50.838;4.636;2022-07-05T05:54:16;4.65;;;3.42;;
32535;SDS011;18974;50.838;4.636;2022-07-05T05:56:41;5.88;;;3.42;;
32535;SDS011;18974;50.838;4.636;2022-07-05T05:59:08;5.85;;;3.60;;
32535;SDS011;18974;50.838;4.636;2022-07-05T06:01:35;4.68;;;3.47;;
32535;SDS011;18974;50.838;4.636;2022-07-05T06:04:00;8.52;;;3.75;;
32535;SDS011;18974;50.838;4.636;2022-07-05T06:06:26;4.93;;;3.45;;
32535;SDS011;18974;50.838;4.636;2022-07-05T06:08:52;5.43;;;3.45;;
32535;SDS011;18974;50.838;4.636;2022-07-05T06:11:18;6.13;;;3.30;;
32535;SDS011;18974;50.838;4.636;2022-07-05T06:13:43;6.57;;;3.55;;
32535;SDS011;18974;50.838;4.636;2022-07-05T06:16:09;6.07;;;3.72;;
32535;SDS011;18974;50.838;4.636;2022-07-05T06:18:35;6.50;;;3.65;;
32535;SDS011;18974;50.838;4.636;2022-07-05T06:21:01;7.10;;;3.58;;
32535;SDS011;18974;50.838;4.636;2022-07-05T06:23:26;6.80;;;3.63;;
32535;SDS011;18974;50.838;4.636;2022-07-05T06:25:52;7.03;;;4.30;;
32535;SDS011;18974;50.838;4.636;2022-07-05T06:28:17;6.05;;;3.65;;
32535;SDS011;18974;50.838;4.636;2022-07-05T06:30:43;5.03;;;3.53;;
32535;SDS011;18974;50.838;4.636;2022-07-05T06:33:09;6.78;;;4.10;;
32535;SDS011;18974;50.838;4.636;2022-07-05T06:35:35;7.22;;;3.65;;
32535;SDS011;18974;50.838;4.636;2022-07-05T06:38:05;6.28;;;4.00;;
32535;SDS011;18974;50.838;4.636;2022-07-05T06:43:00;5.97;;;3.90;;
32535;SDS011;18974;50.838;4.636;2022-07-05T06:45:28;6.53;;;3.70;;
32535;SDS011;18974;50.838;4.636;2022-07-05T06:50:23;6.50;;;3.75;;
32535;SDS011;18974;50.838;4.636;2022-07-05T06:52:53;7.00;;;3.60;;
32535;SDS011;18974;50.838;4.636;2022-07-05T06:55:19;4.60;;;3.95;;
32535;SDS011;18974;50.838;4.636;2022-07-05T06:57:45;6.15;;;3.85;;
32535;SDS011;18974;50.838;4.636;2022-07-05T07:00:12;9.23;;;4.85;;
32535;SDS011;18974;50.838;4.636;2022-07-05T07:02:38;6.10;;;3.70;;
32535;SDS011;18974;50.838;4.636;2022-07-05T07:05:04;5.20;;;3.47;;
32535;SDS011;18974;50.838;4.636;2022-07-05T07:07:31;7.22;;;3.50;;
32535;SDS011;18974;50.838;4.636;2022-07-05T07:10:15;4.05;;;2.50;;
32535;SDS011;18974;50.838;4.636;2022-07-05T07:12:41;4.93;;;2.65;;
32535;SDS011;18974;50.838;4.636;2022-07-05T07:15:07;7.13;;;2.90;;
32535;SDS011;18974;50.838;4.636;2022-07-05T07:17:33;4.68;;;2.75;;
32535;SDS011;18974;50.838;4.636;2022-07-05T07:19:59;8.60;;;2.72;;
32535;SDS011;18974;50.838;4.636;2022-07-05T07:22:24;7.57;;;2.72;;
32535;SDS011;18974;50.838;4.636;2022-07-05T07:24:50;5.88;;;2.72;;
32535;SDS011;18974;50.838;4.636;2022-07-05T07:27:15;6.35;;;2.88;;
32535;SDS011;18974;50.838;4.636;2022-07-05T07:29:41;5.90;;;2.80;;
32535;SDS011;18974;50.838;4.636;2022-07-05T07:32:08;5.20;;;2.50;;
32535;SDS011;18974;50.838;4.636;2022-07-05T07:34:34;3.00;;;2.05;;
32535;SDS011;18974;50.838;4.636;2022-07-05T07:37:01;7.38;;;2.22;;
32535;SDS011;18974;50.838;4.636;2022-07-05T07:39:28;4.65;;;2.30;;
32535;SDS011;18974;50.838;4.636;2022-07-05T07:41:54;5.53;;;2.55;;
32535;SDS011;18974;50.838;4.636;2022-07-05T07:44:20;7.15;;;2.88;;
32535;SDS011;18974;50.838;4.636;2022-07-05T07:46:45;6.80;;;3.30;;
32535;SDS011;18974;50.838;4.636;2022-07-05T07:49:11;7.53;;;2.50;;
32535;SDS011;18974;50.838;4.636;2022-07-05T07:51:37;7.80;;;2.55;;
32535;SDS011;18974;50.838;4.636;2022-07-05T07:54:03;4.25;;;1.70;;
32535;SDS011;18974;50.838;4.636;2022-07-05T07:56:29;8.73;;;2.17;;
32535;SDS011;18974;50.838;4.636;2022-07-05T07:58:55;5.10;;;1.88;;
32535;SDS011;18974;50.838;4.636;2022-07-05T08:01:21;3.63;;;1.88;;
32535;SDS011;18974;50.838;4.636;2022-07-05T08:03:47;6.82;;;1.95;;
32535;SDS011;18974;50.838;4.636;2022-07-05T08:06:13;2.78;;;1.70;;
32535;SDS011;18974;50.838;4.636;2022-07-05T08:08:39;3.40;;;1.98;;
32535;SDS011;18974;50.838;4.636;2022-07-05T08:11:07;10.10;;;1.98;;
32535;SDS011;18974;50.838;4.636;2022-07-05T08:13:34;6.07;;;2.28;;
32535;SDS011;18974;50.838;4.636;2022-07-05T08:16:01;4.13;;;2.28;;
32535;SDS011;18974;50.838;4.636;2022-07-05T08:18:27;7.65;;;2.33;;
32535;SDS011;18974;50.838;4.636;2022-07-05T08:21:12;5.80;;;2.50;;
32535;SDS011;18974;50.838;4.636;2022-07-05T08:23:56;7.63;;;2.67;;
32535;SDS011;18974;50.838;4.636;2022-07-05T08:26:22;4.88;;;1.98;;
32535;SDS011;18974;50.838;4.636;2022-07-05T08:28:48;3.70;;;1.80;;
32535;SDS011;18974;50.838;4.636;2022-07-05T08:31:14;6.28;;;2.67;;
32535;SDS011;18974;50.838;4.636;2022-07-05T08:33:39;4.85;;;2.25;;
32535;SDS011;18974;50.838;4.636;2022-07-05T08:36:05;6.95;;;1.77;;
32535;SDS011;18974;50.838;4.636;2022-07-05T08:38:31;8.85;;;2.17;;
32535;SDS011;18974;50.838;4.636;2022-07-05T08:40:57;5.03;;;2.17;;
32535;SDS011;18974;50.838;4.636;2022-07-05T08:43:23;5.05;;;1.88;;
32535;SDS011;18974;50.838;4.636;2022-07-05T08:45:50;2.05;;;1.63;;
32535;SDS011;18974;50.838;4.636;2022-07-05T08:48:19;5.53;;;1.90;;
32535;SDS011;18974;50.838;4.636;2022-07-05T08:50:45;7.40;;;2.45;;
32535;SDS011;18974;50.838;4.636;2022-07-05T08:53:23;3.95;;;1.73;;
32535;SDS011;18974;50.838;4.636;2022-07-05T08:55:50;4.85;;;1.65;;
32535;SDS011;18974;50.838;4.636;2022-07-05T08:58:15;4.75;;;2.05;;
32535;SDS011;18974;50.838;4.636;2022-07-05T09:00:42;7.18;;;1.77;;
32535;SDS011;18974;50.838;4.636;2022-07-05T09:03:08;6.03;;;1.83;;
32535;SDS011;18974;50.838;4.636;2022-07-05T09:05:36;8.48;;;1.50;;
32535;SDS011;18974;50.838;4.636;2022-07-05T09:08:08;3.63;;;1.70;;
32535;SDS011;18974;50.838;4.636;2022-07-05T09:10:37;6.28;;;1.70;;
32535;SDS011;18974;50.838;4.636;2022-07-05T09:13:04;2.47;;;1.10;;
32535;SDS011;18974;50.838;4.636;2022-07-05T09:15:30;2.35;;;1.38;;
32535;SDS011;18974;50.838;4.636;2022-07-05T09:17:56;4.47;;;1.00;;
32535;SDS011;18974;50.838;4.636;2022-07-05T09:20:21;2.53;;;1.30;;
32535;SDS011;18974;50.838;4.636;2022-07-05T09:22:51;3.30;;;1.30;;
32535;SDS011;18974;50.838;4.636;2022-07-05T09:25:31;4.88;;;1.52;;
32535;SDS011;18974;50.838;4.636;2022-07-05T09:28:01;2.05;;;1.13;;
32535;SDS011;18974;50.838;4.636;2022-07-05T09:30:30;2.83;;;1.10;;
32535;SDS011;18974;50.838;4.636;2022-07-05T09:32:59;4.65;;;1.33;;
32535;SDS011;18974;50.838;4.636;2022-07-05T09:35:30;6.55;;;1.65;;
32535;SDS011;18974;50.838;4.636;2022-07-05T09:37:56;4.60;;;1.50;;
32535;SDS011;18974;50.838;4.636;2022-07-05T09:40:22;3.90;;;1.30;;
32535;SDS011;18974;50.838;4.636;2022-07-05T09:42:48;2.88;;;1.17;;
32535;SDS011;18974;50.838;4.636;2022-07-05T09:45:21;3.55;;;1.30;;
32535;SDS011;18974;50.838;4.636;2022-07-05T09:47:48;4.27;;;1.30;;
32535;SDS011;18974;50.838;4.636;2022-07-05T09:50:14;5.57;;;1.27;;
32535;SDS011;18974;50.838;4.636;2022-07-05T09:52:41;4.85;;;1.25;;
32535;SDS011;18974;50.838;4.636;2022-07-05T09:57:35;4.10;;;1.50;;
32535;SDS011;18974;50.838;4.636;2022-07-05T10:00:05;3.33;;;1.38;;
32535;SDS011;18974;50.838;4.636;2022-07-05T10:02:50;2.70;;;1.40;;
32535;SDS011;18974;50.838;4.636;2022-07-05T10:05:18;4.70;;;1.85;;
32535;SDS011;18974;50.838;4.636;2022-07-05T10:10:16;3.10;;;1.60;;
32535;SDS011;18974;50.838;4.636;2022-07-05T10:12:44;5.45;;;1.33;;
32535;SDS011;18974;50.838;4.636;2022-07-05T10:15:15;4.45;;;1.50;;
32535;SDS011;18974;50.838;4.636;2022-07-05T10:17:53;6.80;;;1.70;;
32535;SDS011;18974;50.838;4.636;2022-07-05T10:22:54;4.57;;;1.45;;
32535;SDS011;18974;50.838;4.636;2022-07-05T10:25:22;2.67;;;1.60;;
32535;SDS011;18974;50.838;4.636;2022-07-05T10:27:49;4.50;;;1.70;;
32535;SDS011;18974;50.838;4.636;2022-07-05T10:30:19;4.60;;;1.20;;
32535;SDS011;18974;50.838;4.636;2022-07-05T10:32:47;4.07;;;1.90;;
32535;SDS011;18974;50.838;4.636;2022-07-05T10:35:14;3.17;;;1.80;;
32535;SDS011;18974;50.838;4.636;2022-07-05T10:37:42;4.82;;;1.50;;
32535;SDS011;18974;50.838;4.636;2022-07-05T10:40:09;5.10;;;1.30;;
32535;SDS011;18974;50.838;4.636;2022-07-05T10:42:39;2.65;;;1.50;;
32535;SDS011;18974;50.838;4.636;2022-07-05T10:58:32;6.20;;;1.52;;
32535;SDS011;18974;50.838;4.636;2022-07-05T11:03:48;6.82;;;1.80;;
32535;SDS011;18974;50.838;4.636;2022-07-05T11:06:31;5.85;;;2.63;;
32535;SDS011;18974;50.838;4.636;2022-07-05T11:11:29;3.53;;;1.85;;
32535;SDS011;18974;50.838;4.636;2022-07-05T11:13:56;5.70;;;2.00;;
32535;SDS011;18974;50.838;4.636;2022-07-05T11:16:30;5.07;;;1.95;;
32535;SDS011;18974;50.838;4.636;2022-07-05T11:19:06;2.92;;;1.70;;
32535;SDS011;18974;50.838;4.636;2022-07-05T11:22:01;5.60;;;1.83;;
32535;SDS011;18974;50.838;4.636;2022-07-05T11:24:32;4.93;;;1.98;;
32535;SDS011;18974;50.838;4.636;2022-07-05T11:26:59;3.05;;;2.03;;
32535;SDS011;18974;50.838;4.636;2022-07-05T11:32:22;4.22;;;1.80;;
32535;SDS011;18974;50.838;4.636;2022-07-05T11:34:48;8.77;;;2.10;;
32535;SDS011;18974;50.838;4.636;2022-07-05T11:42:36;3.80;;;2.10;;
32535;SDS011;18974;50.838;4.636;2022-07-05T11:45:12;4.63;;;2.10;;
32535;SDS011;18974;50.838;4.636;2022-07-05T11:47:38;5.78;;;2.30;;
32535;SDS011;18974;50.838;4.636;2022-07-05T11:50:04;5.15;;;2.30;;
32535;SDS011;18974;50.838;4.636;2022-07-05T11:52:32;4.38;;;2.05;;
32535;SDS011;18974;50.838;4.636;2022-07-05T11:55:04;4.10;;;1.67;;
32535;SDS011;18974;50.838;4.636;2022-07-05T11:57:31;4.20;;;2.17;;
32535;SDS011;18974;50.838;4.636;2022-07-05T11:59:57;6.15;;;2.00;;
32535;SDS011;18974;50.838;4.636;2022-07-05T12:02:23;2.83;;;1.52;;
32535;SDS011;18974;50.838;4.636;2022-07-05T12:04:49;3.70;;;1.50;;
32535;SDS011;18974;50.838;4.636;2022-07-05T12:07:29;3.83;;;1.90;;
32535;SDS011;18974;50.838;4.636;2022-07-05T12:09:59;3.50;;;1.20;;
32535;SDS011;18974;50.838;4.636;2022-07-05T12:12:44;3.22;;;1.10;;
32535;SDS011;18974;50.838;4.636;2022-07-05T12:17:47;3.67;;;1.30;;
32535;SDS011;18974;50.838;4.636;2022-07-05T12:20:15;2.42;;;1.48;;
32535;SDS011;18974;50.838;4.636;2022-07-05T12:22:50;6.80;;;1.40;;
32535;SDS011;18974;50.838;4.636;2022-07-05T12:25:17;6.47;;;1.27;;
32535;SDS011;18974;50.838;4.636;2022-07-05T12:27:46;9.88;;;1.63;;
32535;SDS011;18974;50.838;4.636;2022-07-05T12:30:13;3.72;;;1.35;;
32535;SDS011;18974;50.838;4.636;2022-07-05T12:38:09;3.08;;;1.30;;
32535;SDS011;18974;50.838;4.636;2022-07-05T12:40:36;2.47;;;1.10;;
32535;SDS011;18974;50.838;4.636;2022-07-05T12:45:35;2.05;;;1.23;;
32535;SDS011;18974;50.838;4.636;2022-07-05T12:48:03;3.92;;;1.15;;
32535;SDS011;18974;50.838;4.636;2022-07-05T12:50:52;2.80;;;1.23;;
32535;SDS011;18974;50.838;4.636;2022-07-05T12:53:22;3.83;;;1.33;;
32535;SDS011;18974;50.838;4.636;2022-07-05T12:56:06;5.05;;;1.60;;
32535;SDS011;18974;50.838;4.636;2022-07-05T12:58:53;5.47;;;1.20;;
32535;SDS011;18974;50.838;4.636;2022-07-05T13:04:00;4.65;;;1.33;;
32535;SDS011;18974;50.838;4.636;2022-07-05T13:09:29;5.78;;;2.08;;
32535;SDS011;18974;50.838;4.636;2022-07-05T13:12:11;4.53;;;1.95;;
32535;SDS011;18974;50.838;4.636;2022-07-05T13:14:41;5.50;;;2.28;;
32535;SDS011;18974;50.838;4.636;2022-07-05T13:17:12;3.75;;;2.05;;
32535;SDS011;18974;50.838;4.636;2022-07-05T13:19:39;5.18;;;1.73;;
32535;SDS011;18974;50.838;4.636;2022-07-05T13:22:06;2.90;;;1.80;;
32535;SDS011;18974;50.838;4.636;2022-07-05T13:24:31;4.25;;;1.92;;
32535;SDS011;18974;50.838;4.636;2022-07-05T13:26:58;3.78;;;2.00;;
32535;SDS011;18974;50.838;4.636;2022-07-05T13:29:24;3.72;;;1.60;;
32535;SDS011;18974;50.838;4.636;2022-07-05T13:31:50;4.45;;;1.73;;
32535;SDS011;18974;50.838;4.636;2022-07-05T13:34:16;10.63;;;2.05;;
32535;SDS011;18974;50.838;4.636;2022-07-05T13:36:42;6.00;;;1.65;;
32535;SDS011;18974;50.838;4.636;2022-07-05T13:39:09;2.08;;;1.40;;
32535;SDS011;18974;50.838;4.636;2022-07-05T13:41:35;8.77;;;1.73;;
32535;SDS011;18974;50.838;4.636;2022-07-05T13:44:02;8.80;;;1.95;;
32535;SDS011;18974;50.838;4.636;2022-07-05T13:46:27;4.82;;;1.50;;
32535;SDS011;18974;50.838;4.636;2022-07-05T13:48:53;2.92;;;1.52;;
32535;SDS011;18974;50.838;4.636;2022-07-05T13:51:19;2.35;;;0.98;;
32535;SDS011;18974;50.838;4.636;2022-07-05T13:53:44;5.20;;;1.38;;
32535;SDS011;18974;50.838;4.636;2022-07-05T13:56:10;2.40;;;1.38;;
32535;SDS011;18974;50.838;4.636;2022-07-05T13:58:36;4.70;;;1.50;;
32535;SDS011;18974;50.838;4.636;2022-07-05T14:01:02;4.18;;;1.15;;
32535;SDS011;18974;50.838;4.636;2022-07-05T14:03:28;5.40;;;1.50;;
32535;SDS011;18974;50.838;4.636;2022-07-05T14:05:54;4.20;;;1.50;;
32535;SDS011;18974;50.838;4.636;2022-07-05T14:08:20;3.58;;;1.20;;
32535;SDS011;18974;50.838;4.636;2022-07-05T14:10:49;3.58;;;1.35;;
32535;SDS011;18974;50.838;4.636;2022-07-05T14:13:16;7.57;;;1.10;;
32535;SDS011;18974;50.838;4.636;2022-07-05T14:15:46;3.17;;;1.13;;
32535;SDS011;18974;50.838;4.636;2022-07-05T14:18:16;3.20;;;1.30;;
32535;SDS011;18974;50.838;4.636;2022-07-05T14:20:43;3.45;;;1.00;;
32535;SDS011;18974;50.838;4.636;2022-07-05T14:23:11;3.78;;;1.27;;
32535;SDS011;18974;50.838;4.636;2022-07-05T14:25:37;4.43;;;1.02;;
32535;SDS011;18974;50.838;4.636;2022-07-05T14:28:03;1.35;;;1.15;;
32535;SDS011;18974;50.838;4.636;2022-07-05T14:30:34;3.45;;;1.00;;
32535;SDS011;18974;50.838;4.636;2022-07-05T14:33:00;3.92;;;1.10;;
32535;SDS011;18974;50.838;4.636;2022-07-05T14:35:27;3.20;;;1.45;;
32535;SDS011;18974;50.838;4.636;2022-07-05T14:37:53;1.33;;;1.20;;
32535;SDS011;18974;50.838;4.636;2022-07-05T14:40:18;3.25;;;0.98;;
32535;SDS011;18974;50.838;4.636;2022-07-05T14:42:44;5.55;;;1.10;;
32535;SDS011;18974;50.838;4.636;2022-07-05T14:45:10;3.70;;;1.05;;
32535;SDS011;18974;50.838;4.636;2022-07-05T14:47:36;5.20;;;0.90;;
32535;SDS011;18974;50.838;4.636;2022-07-05T14:50:02;3.45;;;1.23;;
32535;SDS011;18974;50.838;4.636;2022-07-05T14:52:28;2.83;;;1.10;;
32535;SDS011;18974;50.838;4.636;2022-07-05T14:54:55;3.53;;;0.95;;
32535;SDS011;18974;50.838;4.636;2022-07-05T14:57:21;2.08;;;1.30;;
32535;SDS011;18974;50.838;4.636;2022-07-05T14:59:47;2.25;;;1.02;;
32535;SDS011;18974;50.838;4.636;2022-07-05T15:02:13;2.85;;;1.10;;
32535;SDS011;18974;50.838;4.636;2022-07-05T15:04:39;4.45;;;0.90;;
32535;SDS011;18974;50.838;4.636;2022-07-05T15:07:08;2.05;;;1.13;;
32535;SDS011;18974;50.838;4.636;2022-07-05T15:09:34;2.65;;;1.05;;
32535;SDS011;18974;50.838;4.636;2022-07-05T15:12:00;1.52;;;0.90;;
32535;SDS011;18974;50.838;4.636;2022-07-05T15:14:25;1.98;;;0.90;;
32535;SDS011;18974;50.838;4.636;2022-07-05T15:16:53;8.23;;;1.20;;
32535;SDS011;18974;50.838;4.636;2022-07-05T15:19:19;1.85;;;0.80;;
32535;SDS011;18974;50.838;4.636;2022-07-05T15:21:45;2.25;;;0.73;;
32535;SDS011;18974;50.838;4.636;2022-07-05T15:24:11;1.38;;;0.80;;
32535;SDS011;18974;50.838;4.636;2022-07-05T15:26:37;1.25;;;0.95;;
32535;SDS011;18974;50.838;4.636;2022-07-05T15:29:03;2.72;;;0.80;;
32535;SDS011;18974;50.838;4.636;2022-07-05T15:31:30;8.30;;;0.90;;
32535;SDS011;18974;50.838;4.636;2022-07-05T15:33:57;1.98;;;0.90;;
32535;SDS011;18974;50.838;4.636;2022-07-05T15:36:31;7.18;;;1.70;;
32535;SDS011;18974;50.838;4.636;2022-07-05T15:38:58;4.03;;;0.90;;
32535;SDS011;18974;50.838;4.636;2022-07-05T15:41:28;2.85;;;1.10;;
32535;SDS011;18974;50.838;4.636;2022-07-05T15:43:54;2.60;;;1.10;;